Time;durP1;ratioP1;P1;durP2;ratioP2;P2;SDS_P1;SDS_P2;PMS_P1;PMS_P2;Temp;Humidity;BMP_temperature;BMP_pressure;BME280_temperature;BME280_humidity;BME280_pressure;Samples;Min_cycle;Max_cycle;Signal;HPM_P1;HPM_P2
2021/09/06 00:00:35;;;;;;;;;;;;;;;;;;4997543;28;20026;-67
2021/09/06 00:03:02;;;;;;;;;;;;;;;;;;4997830;28;20435;-68
2021/09/06 00:05:29;;;;;;;;;;;;;;;;;;4997228;28;20002;-67
2021/09/06 00:07:56;;;;;;;;;;;;;;;;;;4996928;28;20013;-67
2021/09/06 00:10:23;;;;;;;;;;;;;;;;;;4997249;28;20389;-67
2021/09/06 00:12:49;;;;;;;;;;;;;;;;;;4997252;28;20003;-67
2021/09/06 00:15:16;;;;;;;;;;;;;;;;;;4997000;28;20009;-66
2021/09/06 00:17:43;;;;;;;;;;;;;;;;;;4996897;28;20014;-69
2021/09/06 00:20:10;;;;;;;;;;;;;;;;;;4996597;28;20025;-66
2021/09/06 00:22:37;;;;;;;;;;;;;;;;;;4996434;28;20010;-68
2021/09/06 00:25:04;;;;;;;;;;;;;;;;;;4996465;28;20002;-68
2021/09/06 00:27:31;;;;;;;;;;;;;;;;;;4996607;28;20009;-67
2021/09/06 00:29:58;;;;;;;;;;;;;;;;;;4996098;28;20410;-67
2021/09/06 00:32:25;;;;;;;;;;;;;;;;;;4996311;28;20022;-66
2021/09/06 00:34:52;;;;;;;;;;;;;;;;;;4996757;28;20002;-68
2021/09/06 00:37:19;;;;;;;;;;;;;;;;;;4996084;28;20010;-67
2021/09/06 00:39:46;;;;;;;;;;;;;;;;;;4996559;28;20018;-67
2021/09/06 00:42:13;;;;;;;;;;;;;;;;;;4996501;28;20050;-67
2021/09/06 00:44:40;;;;;;;;;;;;;;;;;;4996854;28;20008;-67
2021/09/06 00:47:07;;;;;;;;;;;;;;;;;;4996851;28;20003;-67
2021/09/06 00:49:34;;;;;;;;;;;;;;;;;;4997917;28;20013;-68
2021/09/06 00:52:01;;;;;;;;;;;;;;;;;;4999039;28;20386;-68
2021/09/06 00:54:28;;;;;;;;;;;;;;;;;;4999964;28;20013;-67
2021/09/06 00:56:55;;;;;;;;;;;;;;;;;;5001663;28;20006;-67
2021/09/06 00:59:22;;;;;;;;;;;;;;;;;;5012625;28;20003;-68
2021/09/06 01:01:49;;;;;;;;;;;;;;;;;;5010029;28;20002;-67
2021/09/06 01:04:16;;;;;;;;;;;;;;;;;;5010113;28;20002;-69
2021/09/06 01:06:42;;;;;;;;;;;;;;;;;;5009725;28;20013;-69
2021/09/06 01:09:09;;;;;;;;;;;;;;;;;;5010899;28;20003;-67
2021/09/06 01:11:36;;;;;;;;;;;;;;;;;;4996190;28;20037;-67
2021/09/06 01:14:03;;;;;;;;;;;;;;;;;;4997178;28;20003;-67
2021/09/06 01:16:30;;;;;;;;;;;;;;;;;;4996206;28;20002;-67
2021/09/06 01:18:57;;;;;;;;;;;;;;;;;;4996446;28;20013;-67
2021/09/06 01:21:24;;;;;;;;;;;;;;;;;;4996626;28;20018;-67
2021/09/06 01:23:51;;;;;;;;;;;;;;;;;;4999204;28;20397;-68
2021/09/06 01:26:18;;;;;;;;;;;;;;;;;;4997310;28;20003;-67
2021/09/06 01:28:45;;;;;;;;;;;;;;;;;;5000894;28;20002;-67
2021/09/06 01:31:12;;;;;;;;;;;;;;;;;;5013021;28;20019;-68
2021/09/06 01:33:38;;;;;;;;;;;;;;;;;;5013594;28;20009;-68
2021/09/06 01:36:05;;;;;;;;;;;;;;;;;;5013834;28;20548;-68
2021/09/06 01:38:32;;;;;;;;;;;;;;;;;;5013262;28;20002;-68
2021/09/06 01:40:59;;;;;;;;;;;;;;;;;;5011347;28;20029;-69
2021/09/06 01:43:26;;;;;;;;;;;;;;;;;;5014408;28;20013;-68
2021/09/06 01:45:53;;;;;;;;;;;;;;;;;;4996173;28;20267;-67
2021/09/06 01:48:20;;;;;;;;;;;;;;;;;;4994426;28;20010;-67
2021/09/06 01:50:47;;;;;;;;;;;;;;;;;;4994364;28;20023;-67
2021/09/06 01:53:14;;;;;;;;;;;;;;;;;;4994416;28;20461;-67
2021/09/06 01:55:41;;;;;;;;;;;;;;;;;;4994637;28;20003;-67
2021/09/06 01:58:07;;;;;;;;;;;;;;;;;;4994991;28;20003;-68
2021/09/06 02:00:34;;;;;;;;;;;;;;;;;;4994695;28;20026;-67
2021/09/06 02:03:01;;;;;;;;;;;;;;;;;;4994703;28;20009;-67
2021/09/06 02:05:28;;;;;;;;;;;;;;;;;;4994792;28;20343;-67
2021/09/06 02:07:55;;;;;;;;;;;;;;;;;;4994229;28;20002;-67
2021/09/06 02:10:22;;;;;;;;;;;;;;;;;;4994136;28;20030;-68
2021/09/06 02:12:49;;;;;;;;;;;;;;;;;;4993837;28;20040;-67
2021/09/06 02:15:16;;;;;;;;;;;;;;;;;;4993909;28;20007;-68
2021/09/06 02:17:43;;;;;;;;;;;;;;;;;;4994043;28;20325;-66
2021/09/06 02:20:10;;;;;;;;;;;;;;;;;;4993886;28;20018;-67
2021/09/06 02:22:37;;;;;;;;;;;;;;;;;;4994022;28;20009;-68
2021/09/06 02:25:03;;;;;;;;;;;;;;;;;;4994227;28;20002;-67
2021/09/06 02:27:30;;;;;;;;;;;;;;;;;;4993815;28;20010;-67
2021/09/06 02:29:57;;;;;;;;;;;;;;;;;;4993648;28;20022;-67
2021/09/06 02:32:24;;;;;;;;;;;;;;;;;;4993267;28;20019;-68
2021/09/06 02:34:51;;;;;;;;;;;;;;;;;;4994068;28;20002;-67
2021/09/06 02:37:18;;;;;;;;;;;;;;;;;;4993774;28;20027;-67
2021/09/06 02:39:45;;;;;;;;;;;;;;;;;;4993611;28;20018;-67
2021/09/06 02:42:12;;;;;;;;;;;;;;;;;;4993249;28;20009;-67
2021/09/06 02:44:39;;;;;;;;;;;;;;;;;;4993356;28;20351;-67
2021/09/06 02:47:06;;;;;;;;;;;;;;;;;;4993778;28;20009;-67
2021/09/06 02:49:33;;;;;;;;;;;;;;;;;;4994215;28;20002;-68
2021/09/06 02:51:59;;;;;;;;;;;;;;;;;;4993767;28;20090;-67
2021/09/06 02:54:26;;;;;;;;;;;;;;;;;;4993841;28;20006;-66
2021/09/06 02:56:53;;;;;;;;;;;;;;;;;;4993150;28;20003;-67
2021/09/06 02:59:20;;;;;;;;;;;;;;;;;;4993485;28;20009;-67
2021/09/06 03:01:47;;;;;;;;;;;;;;;;;;4993355;28;20002;-68
2021/09/06 03:04:14;;;;;;;;;;;;;;;;;;4993283;28;20481;-67
2021/09/06 03:06:41;;;;;;;;;;;;;;;;;;4993191;28;20003;-68
2021/09/06 03:09:08;;;;;;;;;;;;;;;;;;4993571;28;20025;-68
2021/09/06 03:11:35;;;;;;;;;;;;;;;;;;4992802;28;20018;-67
2021/09/06 03:14:02;;;;;;;;;;;;;;;;;;4993550;28;20002;-67
2021/09/06 03:16:28;;;;;;;;;;;;;;;;;;4993068;28;20362;-67
2021/09/06 03:18:55;;;;;;;;;;;;;;;;;;4993265;28;20002;-67
2021/09/06 03:21:22;;;;;;;;;;;;;;;;;;4993094;28;20019;-67
2021/09/06 03:23:49;;;;;;;;;;;;;;;;;;4992387;28;20002;-68
2021/09/06 03:26:16;;;;;;;;;;;;;;;;;;4993506;28;20013;-67
2021/09/06 03:28:43;;;;;;;;;;;;;;;;;;4994207;28;20009;-67
2021/09/06 03:31:10;;;;;;;;;;;;;;;;;;4993478;28;20019;-67
2021/09/06 03:33:37;;;;;;;;;;;;;;;;;;4993388;28;20014;-67
2021/09/06 03:36:04;;;;;;;;;;;;;;;;;;4993659;28;20369;-67
2021/09/06 03:38:31;;;;;;;;;;;;;;;;;;4994768;28;20010;-66
2021/09/06 03:40:58;;;;;;;;;;;;;;;;;;4993483;28;20022;-68
2021/09/06 03:43:24;;;;;;;;;;;;;;;;;;4994893;28;20466;-67
2021/09/06 03:45:51;;;;;;;;;;;;;;;;;;4994337;28;20002;-67
2021/09/06 03:48:18;;;;;;;;;;;;;;;;;;4993117;28;20006;-67
2021/09/06 03:50:45;;;;;;;;;;;;;;;;;;4993167;28;20022;-66
2021/09/06 03:53:12;;;;;;;;;;;;;;;;;;4993225;28;20018;-66
2021/09/06 03:55:39;;;;;;;;;;;;;;;;;;4993865;28;20458;-67
2021/09/06 03:58:06;;;;;;;;;;;;;;;;;;4993040;28;20002;-67
2021/09/06 04:00:33;;;;;;;;;;;;;;;;;;4992589;28;20026;-67
2021/09/06 04:03:00;;;;;;;;;;;;;;;;;;4992624;28;20002;-66
2021/09/06 04:05:27;;;;;;;;;;;;;;;;;;4992748;28;20010;-66
2021/09/06 04:07:54;;;;;;;;;;;;;;;;;;4992654;28;20401;-70
2021/09/06 04:10:21;;;;;;;;;;;;;;;;;;4992624;28;20018;-74
2021/09/06 04:12:47;;;;;;;;;;;;;;;;;;4992657;28;20025;-75
2021/09/06 04:15:14;;;;;;;;;;;;;;;;;;4992878;28;20377;-75
2021/09/06 04:17:41;;;;;;;;;;;;;;;;;;4993144;28;20077;-77
2021/09/06 04:20:08;;;;;;;;;;;;;;;;;;4992560;28;20025;-77
2021/09/06 04:22:37;;;;;;;;;;;;;;;;;;4993195;28;20003;-75
2021/09/06 04:25:04;;;;;;;;;;;;;;;;;;4992804;28;20003;-77
2021/09/06 04:27:31;;;;;;;;;;;;;;;;;;4992568;28;20009;-77
2021/09/06 04:29:58;;;;;;;;;;;;;;;;;;4992652;28;20506;-72
2021/09/06 04:32:24;;;;;;;;;;;;;;;;;;4992708;28;20015;-74
2021/09/06 04:34:51;;;;;;;;;;;;;;;;;;4992800;28;20010;-77
2021/09/06 04:37:18;;;;;;;;;;;;;;;;;;4996040;28;20002;-70
2021/09/06 04:39:45;;;;;;;;;;;;;;;;;;4996389;28;20025;-77
2021/09/06 04:42:12;;;;;;;;;;;;;;;;;;4996058;28;20002;-72
2021/09/06 04:44:39;;;;;;;;;;;;;;;;;;4996324;28;20003;-77
2021/09/06 04:47:06;;;;;;;;;;;;;;;;;;4996299;28;20003;-76
2021/09/06 04:49:33;;;;;;;;;;;;;;;;;;4996150;28;20101;-74
2021/09/06 04:52:00;;;;;;;;;;;;;;;;;;4995869;28;20018;-77
2021/09/06 04:54:27;;;;;;;;;;;;;;;;;;4996486;28;20002;-78
2021/09/06 04:56:54;;;;;;;;;;;;;;;;;;4995845;28;20002;-76
2021/09/06 04:59:22;;;;;;;;;;;;;;;;;;4996241;28;20049;-77
2021/09/06 05:01:49;;;;;;;;;;;;;;;;;;4995732;28;20009;-75
2021/09/06 05:04:16;;;;;;;;;;;;;;;;;;4995852;28;20006;-75
2021/09/06 05:06:42;;;;;;;;;;;;;;;;;;4995632;28;20082;-72
2021/09/06 05:09:09;;;;;;;;;;;;;;;;;;4995791;28;20023;-76
2021/09/06 05:11:36;;;;;;;;;;;;;;;;;;4995583;28;20019;-75
2021/09/06 05:14:03;;;;;;;;;;;;;;;;;;4995949;28;20009;-78
2021/09/06 05:16:30;;;;;;;;;;;;;;;;;;4995838;28;20458;-73
2021/09/06 05:18:57;;;;;;;;;;;;;;;;;;4995393;28;20003;-75
2021/09/06 05:21:24;;;;;;;;;;;;;;;;;;4995376;28;20117;-73
2021/09/06 05:23:52;;;;;;;;;;;;;;;;;;4995426;28;20002;-78
2021/09/06 05:26:19;;;;;;;;;;;;;;;;;;4995555;28;20061;-76
2021/09/06 05:28:46;;;;;;;;;;;;;;;;;;4995336;28;20466;-73
2021/09/06 05:31:14;;;;;;;;;;;;;;;;;;4995393;28;20018;-77
2021/09/06 05:33:41;;;;;;;;;;;;;;;;;;4995427;28;20120;-74
2021/09/06 05:36:09;;;;;;;;;;;;;;;;;;4995728;28;20002;-74
2021/09/06 05:38:36;;;;;;;;;;;;;;;;;;4995251;28;20425;-76
2021/09/06 05:41:03;;;;;;;;;;;;;;;;;;4994812;28;20667;-77
2021/09/06 05:43:30;;;;;;;;;;;;;;;;;;4995162;28;20002;-73
2021/09/06 05:45:57;;;;;;;;;;;;;;;;;;4994965;28;20002;-68
2021/09/06 05:48:24;;;;;;;;;;;;;;;;;;4993961;28;20480;-66
2021/09/06 05:50:51;;;;;;;;;;;;;;;;;;5021099;23;20018;-66
2021/09/06 05:53:18;;;;;;;;;;;;;;;;;;5008172;28;20010;-65
2021/09/06 05:55:45;;;;;;;;;;;;;;;;;;5014058;28;20105;-66
2021/09/06 05:58:11;;;;;;;;;;;;;;;;;;5013767;28;20002;-65
2021/09/06 06:00:38;;;;;;;;;;;;;;;;;;5013884;28;20025;-64
2021/09/06 06:03:05;;;;;;;;;;;;;;;;;;5014416;28;20485;-66
2021/09/06 06:05:32;;;;;;;;;;;;;;;;;;5014104;28;20010;-65
2021/09/06 06:07:59;;;;;;;;;;;;;;;;;;5014081;28;20001;-65
2021/09/06 06:10:26;;;;;;;;;;;;;;;;;;5013374;28;20072;-64
2021/09/06 06:12:53;;;;;;;;;;;;;;;;;;5013762;28;20013;-66
2021/09/06 06:15:20;;;;;;;;;;;;;;;;;;5014007;28;19998;-66
2021/09/06 06:17:47;;;;;;;;;;;;;;;;;;5013565;28;20002;-65
2021/09/06 06:20:14;;;;;;;;;;;;;;;;;;5013431;28;20009;-66
2021/09/06 06:22:41;;;;;;;;;;;;;;;;;;5013582;28;20002;-67
2021/09/06 06:25:08;;;;;;;;;;;;;;;;;;5013582;28;20006;-66
2021/09/06 06:27:35;;;;;;;;;;;;;;;;;;5013420;28;20002;-66
2021/09/06 06:30:02;;;;;;;;;;;;;;;;;;5013268;28;20477;-66
2021/09/06 06:32:28;;;;;;;;;;;;;;;;;;5013247;28;20025;-66
2021/09/06 06:34:55;;;;;;;;;;;;;;;;;;5013476;28;20012;-67
2021/09/06 06:37:22;;;;;;;;;;;;;;;;;;5013588;28;20377;-66
2021/09/06 06:39:49;;;;;;;;;;;;;;;;;;5012904;28;19998;-63
2021/09/06 06:42:16;;;;;;;;;;;;;;;;;;5013093;28;20033;-67
2021/09/06 06:44:43;;;;;;;;;;;;;;;;;;5013836;28;20101;-66
2021/09/06 06:47:10;;;;;;;;;;;;;;;;;;5012914;28;20006;-66
2021/09/06 06:49:37;;;;;;;;;;;;;;;;;;5013341;28;20002;-67
2021/09/06 06:52:04;;;;;;;;;;;;;;;;;;5012447;28;20022;-66
2021/09/06 06:54:31;;;;;;;;;;;;;;;;;;5012704;28;20009;-66
2021/09/06 06:56:58;;;;;;;;;;;;;;;;;;5013060;28;20007;-66
2021/09/06 06:59:25;;;;;;;;;;;;;;;;;;5013035;28;20012;-66
2021/09/06 07:01:52;;;;;;;;;;;;;;;;;;5012476;28;20494;-64
2021/09/06 07:04:19;;;;;;;;;;;;;;;;;;5013240;28;20002;-65
2021/09/06 07:06:46;;;;;;;;;;;;;;;;;;5012684;28;20076;-66
2021/09/06 07:09:13;;;;;;;;;;;;;;;;;;5012638;28;20009;-66
2021/09/06 07:11:40;;;;;;;;;;;;;;;;;;5012535;28;20018;-65
2021/09/06 07:14:07;;;;;;;;;;;;;;;;;;5012603;28;20014;-66
2021/09/06 07:16:34;;;;;;;;;;;;;;;;;;5012585;28;20590;-66
2021/09/06 07:19:01;;;;;;;;;;;;;;;;;;5012894;28;20002;-66
2021/09/06 07:21:28;;;;;;;;;;;;;;;;;;5012079;28;20555;-66
2021/09/06 07:23:55;;;;;;;;;;;;;;;;;;5012835;28;20089;-66
2021/09/06 07:26:22;;;;;;;;;;;;;;;;;;5012636;28;20089;-66
2021/09/06 07:28:49;;;;;;;;;;;;;;;;;;5012462;28;20002;-66
2021/09/06 07:31:16;;;;;;;;;;;;;;;;;;5012184;28;20022;-66
2021/09/06 07:33:43;;;;;;;;;;;;;;;;;;5012302;28;20470;-66
2021/09/06 07:36:10;;;;;;;;;;;;;;;;;;5012463;28;20009;-66
2021/09/06 07:38:37;;;;;;;;;;;;;;;;;;5012492;28;20002;-65
2021/09/06 07:41:04;;;;;;;;;;;;;;;;;;5012177;28;20025;-66
2021/09/06 07:43:31;;;;;;;;;;;;;;;;;;5012411;28;20002;-65
2021/09/06 07:45:57;;;;;;;;;;;;;;;;;;5012408;28;20362;-66
2021/09/06 07:48:24;;;;;;;;;;;;;;;;;;5012567;28;20002;-66
2021/09/06 07:50:51;;;;;;;;;;;;;;;;;;5011830;28;20023;-66
2021/09/06 07:53:19;;;;;;;;;;;;;;;;;;5012443;28;20022;-66
2021/09/06 07:55:46;;;;;;;;;;;;;;;;;;5012209;28;20058;-66
2021/09/06 07:58:13;;;;;;;;;;;;;;;;;;5012328;28;20008;-66
2021/09/06 08:00:40;;;;;;;;;;;;;;;;;;5012175;28;20408;-65
2021/09/06 08:03:07;;;;;;;;;;;;;;;;;;5011703;28;20006;-65
2021/09/06 08:05:34;;;;;;;;;;;;;;;;;;5012319;28;20009;-65
2021/09/06 08:08:00;;;;;;;;;;;;;;;;;;5012263;28;20002;-65
2021/09/06 08:10:27;;;;;;;;;;;;;;;;;;5013068;28;20021;-65
2021/09/06 08:12:54;;;;;;;;;;;;;;;;;;5015744;28;20481;-66
2021/09/06 08:15:21;;;;;;;;;;;;;;;;;;5016189;28;20002;-64
2021/09/06 08:17:48;;;;;;;;;;;;;;;;;;5015866;28;20009;-66
2021/09/06 08:20:15;;;;;;;;;;;;;;;;;;5015836;28;20096;-65
2021/09/06 08:22:42;;;;;;;;;;;;;;;;;;5015901;28;20024;-65
2021/09/06 08:25:09;;;;;;;;;;;;;;;;;;5015819;28;20006;-66
2021/09/06 08:27:36;;;;;;;;;;;;;;;;;;5015494;28;20224;-65
2021/09/06 08:30:03;;;;;;;;;;;;;;;;;;5015373;28;20052;-66
2021/09/06 08:32:30;;;;;;;;;;;;;;;;;;5015250;28;20009;-65
2021/09/06 08:34:57;;;;;;;;;;;;;;;;;;5015798;28;20097;-66
2021/09/06 08:37:24;;;;;;;;;;;;;;;;;;5015218;28;20002;-65
2021/09/06 08:39:51;;;;;;;;;;;;;;;;;;5015290;28;20486;-66
2021/09/06 08:42:18;;;;;;;;;;;;;;;;;;5015120;28;20018;-65
2021/09/06 08:44:45;;;;;;;;;;;;;;;;;;5015488;28;20096;-65
2021/09/06 08:47:13;;;;;;;;;;;;;;;;;;5015408;28;20006;-65
2021/09/06 08:49:40;;;;;;;;;;;;;;;;;;5015302;28;20465;-65
2021/09/06 08:52:07;;;;;;;;;;;;;;;;;;5014802;28;20027;-66
2021/09/06 08:54:34;;;;;;;;;;;;;;;;;;5015232;28;20109;-66
2021/09/06 08:57:01;;;;;;;;;;;;;;;;;;5015624;28;20009;-66
2021/09/06 08:59:28;;;;;;;;;;;;;;;;;;5014879;28;20481;-66
2021/09/06 09:01:55;;;;;;;;;;;;;;;;;;5014506;28;20014;-65
2021/09/06 09:04:21;;;;;;;;;;;;;;;;;;5015281;28;20009;-66
2021/09/06 09:06:48;;;;;;;;;;;;;;;;;;5015187;28;20025;-65
2021/09/06 09:09:15;;;;;;;;;;;;;;;;;;5015131;28;20069;-66
2021/09/06 09:11:42;;;;;;;;;;;;;;;;;;5014605;28;20018;-66
2021/09/06 09:14:09;;;;;;;;;;;;;;;;;;5014926;28;20024;-66
2021/09/06 09:16:36;;;;;;;;;;;;;;;;;;5014754;28;20581;-66
2021/09/06 09:19:03;;;;;;;;;;;;;;;;;;5015140;28;20009;-65
2021/09/06 09:21:30;;;;;;;;;;;;;;;;;;5013759;28;20018;-66
2021/09/06 09:24:01;;;;;;;;;;;;;;;;;;5014215;28;20007;-65
2021/09/06 09:26:28;;;;;;;;;;;;;;;;;;5014962;28;20002;-65
2021/09/06 09:28:55;;;;;;;;;;;;;;;;;;5014527;28;20006;-66
2021/09/06 09:31:22;;;;;;;;;;;;;;;;;;5014287;28;20024;-66
2021/09/06 09:33:49;;;;;;;;;;;;;;;;;;5014538;28;20014;-65
2021/09/06 09:36:16;;;;;;;;;;;;;;;;;;5014657;28;20002;-66
2021/09/06 09:38:43;;;;;;;;;;;;;;;;;;5014418;28;20002;-66
2021/09/06 09:41:10;;;;;;;;;;;;;;;;;;5014442;28;20018;-66
2021/09/06 09:43:37;;;;;;;;;;;;;;;;;;5014447;28;20416;-66
2021/09/06 09:46:03;;;;;;;;;;;;;;;;;;5014476;28;20002;-65
2021/09/06 09:48:30;;;;;;;;;;;;;;;;;;5014474;28;20002;-66
2021/09/06 09:50:57;;;;;;;;;;;;;;;;;;5013698;28;20025;-64
2021/09/06 09:53:24;;;;;;;;;;;;;;;;;;5014405;28;20025;-66
2021/09/06 09:55:51;;;;;;;;;;;;;;;;;;5014141;28;20008;-66
2021/09/06 09:58:18;;;;;;;;;;;;;;;;;;5014015;28;20009;-65
2021/09/06 10:00:46;;;;;;;;;;;;;;;;;;5013588;28;20018;-66
2021/09/06 10:03:13;;;;;;;;;;;;;;;;;;5013811;28;20002;-66
2021/09/06 10:05:40;;;;;;;;;;;;;;;;;;5013850;28;20013;-65
2021/09/06 10:08:07;;;;;;;;;;;;;;;;;;5014009;28;20006;-66
2021/09/06 10:10:34;;;;;;;;;;;;;;;;;;5013067;28;20392;-65
2021/09/06 10:13:00;;;;;;;;;;;;;;;;;;5013882;28;20011;-65
2021/09/06 10:15:27;;;;;;;;;;;;;;;;;;5013981;28;20006;-66
2021/09/06 10:17:54;;;;;;;;;;;;;;;;;;5013612;28;20465;-66
2021/09/06 10:20:21;;;;;;;;;;;;;;;;;;5013267;28;20009;-66
2021/09/06 10:22:48;;;;;;;;;;;;;;;;;;5013857;28;20003;-65
2021/09/06 10:25:15;;;;;;;;;;;;;;;;;;5013533;28;20002;-66
2021/09/06 10:27:42;;;;;;;;;;;;;;;;;;5013310;28;20009;-65
2021/09/06 10:30:09;;;;;;;;;;;;;;;;;;5013319;28;20006;-63
2021/09/06 10:32:36;;;;;;;;;;;;;;;;;;5013259;28;20218;-65
2021/09/06 10:35:03;;;;;;;;;;;;;;;;;;5013323;28;20050;-65
2021/09/06 10:37:34;;;;;;;;;;;;;;;;;;5013309;28;20089;-65
2021/09/06 10:40:01;;;;;;;;;;;;;;;;;;5013267;28;20005;-66
2021/09/06 10:42:28;;;;;;;;;;;;;;;;;;5012958;28;20495;-65
2021/09/06 10:44:55;;;;;;;;;;;;;;;;;;5013653;28;20002;-66
2021/09/06 10:47:22;;;;;;;;;;;;;;;;;;5012834;28;20024;-66
2021/09/06 10:49:49;;;;;;;;;;;;;;;;;;5012879;28;20009;-65
2021/09/06 10:52:15;;;;;;;;;;;;;;;;;;5012593;28;20022;-65
2021/09/06 10:54:42;;;;;;;;;;;;;;;;;;5013103;28;20018;-65
2021/09/06 10:57:09;;;;;;;;;;;;;;;;;;5012856;28;20005;-65
2021/09/06 10:59:36;;;;;;;;;;;;;;;;;;5012674;28;20009;-66
2021/09/06 11:02:03;;;;;;;;;;;;;;;;;;5012645;28;20018;-65
2021/09/06 11:04:31;;;;;;;;;;;;;;;;;;5012805;28;20002;-65
2021/09/06 11:06:58;;;;;;;;;;;;;;;;;;5012955;28;20002;-66
2021/09/06 11:09:25;;;;;;;;;;;;;;;;;;5012915;28;20064;-65
2021/09/06 11:11:52;;;;;;;;;;;;;;;;;;5012324;28;20019;-65
2021/09/06 11:14:19;;;;;;;;;;;;;;;;;;5012514;28;20389;-66
2021/09/06 11:16:46;;;;;;;;;;;;;;;;;;5012711;28;20006;-65
2021/09/06 11:19:13;;;;;;;;;;;;;;;;;;5012661;28;20010;-65
2021/09/06 11:21:40;;;;;;;;;;;;;;;;;;5012295;28;20065;-65
2021/09/06 11:24:07;;;;;;;;;;;;;;;;;;5012642;28;20413;-66
2021/09/06 11:26:34;;;;;;;;;;;;;;;;;;5012479;28;20487;-65
2021/09/06 11:29:01;;;;;;;;;;;;;;;;;;5012645;28;20064;-65
2021/09/06 11:31:28;;;;;;;;;;;;;;;;;;5012155;28;20022;-65
2021/09/06 11:33:55;;;;;;;;;;;;;;;;;;5012534;28;20022;-66
2021/09/06 11:36:22;;;;;;;;;;;;;;;;;;5012484;28;20025;-65
2021/09/06 11:38:49;;;;;;;;;;;;;;;;;;5012582;28;20010;-65
2021/09/06 11:41:16;;;;;;;;;;;;;;;;;;5012169;28;20018;-66
2021/09/06 11:43:43;;;;;;;;;;;;;;;;;;5012529;28;20025;-66
2021/09/06 11:46:10;;;;;;;;;;;;;;;;;;5011527;28;20002;-65
2021/09/06 11:48:37;;;;;;;;;;;;;;;;;;5012286;28;20009;-65
2021/09/06 11:51:05;;;;;;;;;;;;;;;;;;5032794;23;20200;-69
2021/09/06 11:53:32;;;;;;;;;;;;;;;;;;5007402;28;20001;-69
2021/09/06 11:55:59;;;;;;;;;;;;;;;;;;5013228;28;19998;-67
2021/09/06 11:58:26;;;;;;;;;;;;;;;;;;5013560;28;20279;-67
2021/09/06 12:00:52;;;;;;;;;;;;;;;;;;5013728;28;20013;-66
2021/09/06 12:03:19;;;;;;;;;;;;;;;;;;5013248;28;20013;-69
2021/09/06 12:05:48;;;;;;;;;;;;;;;;;;5013500;28;20002;-69
2021/09/06 12:08:15;;;;;;;;;;;;;;;;;;5012958;28;20002;-69
2021/09/06 12:10:41;;;;;;;;;;;;;;;;;;5012605;28;20002;-69
2021/09/06 12:13:08;;;;;;;;;;;;;;;;;;5012516;28;20105;-69
2021/09/06 12:15:35;;;;;;;;;;;;;;;;;;5012557;28;20018;-69
2021/09/06 12:18:02;;;;;;;;;;;;;;;;;;5012230;28;20025;-69
2021/09/06 12:20:29;;;;;;;;;;;;;;;;;;5012959;28;20002;-69
2021/09/06 12:22:56;;;;;;;;;;;;;;;;;;5012486;28;20029;-69
2021/09/06 12:25:23;;;;;;;;;;;;;;;;;;5012352;28;20476;-70
2021/09/06 12:27:50;;;;;;;;;;;;;;;;;;5013001;28;20090;-69
2021/09/06 12:30:17;;;;;;;;;;;;;;;;;;5012393;28;20462;-67
2021/09/06 12:32:44;;;;;;;;;;;;;;;;;;5013567;28;20018;-67
2021/09/06 12:35:11;;;;;;;;;;;;;;;;;;5014439;28;20029;-67
2021/09/06 12:37:38;;;;;;;;;;;;;;;;;;5015678;28;20002;-67
2021/09/06 12:40:04;;;;;;;;;;;;;;;;;;5016499;28;20002;-67
2021/09/06 12:42:31;;;;;;;;;;;;;;;;;;5013733;28;20041;-67
2021/09/06 12:44:58;;;;;;;;;;;;;;;;;;5013718;28;20002;-67
2021/09/06 12:47:25;;;;;;;;;;;;;;;;;;5014460;28;20002;-67
2021/09/06 12:49:52;;;;;;;;;;;;;;;;;;5015195;28;20002;-67
2021/09/06 12:52:19;;;;;;;;;;;;;;;;;;5013574;28;20022;-70
2021/09/06 12:54:46;;;;;;;;;;;;;;;;;;5011914;28;20363;-69
2021/09/06 12:57:13;;;;;;;;;;;;;;;;;;5014976;28;20010;-70
2021/09/06 12:59:40;;;;;;;;;;;;;;;;;;5016711;28;20014;-69
2021/09/06 13:02:07;;;;;;;;;;;;;;;;;;5015534;28;20024;-70
2021/09/06 13:04:34;;;;;;;;;;;;;;;;;;5015944;28;20009;-69
2021/09/06 13:07:01;;;;;;;;;;;;;;;;;;5015225;28;20478;-69
2021/09/06 13:09:28;;;;;;;;;;;;;;;;;;5015361;28;20097;-69
2021/09/06 13:11:55;;;;;;;;;;;;;;;;;;5015023;28;20019;-69
2021/09/06 13:14:22;;;;;;;;;;;;;;;;;;5015410;28;20018;-69
2021/09/06 13:16:49;;;;;;;;;;;;;;;;;;5014734;28;20013;-69
2021/09/06 13:19:16;;;;;;;;;;;;;;;;;;5015290;28;20003;-70
2021/09/06 13:21:44;;;;;;;;;;;;;;;;;;5014429;28;20018;-69
2021/09/06 13:24:11;;;;;;;;;;;;;;;;;;5014729;28;20393;-69
2021/09/06 13:26:40;;;;;;;;;;;;;;;;;;5014771;28;20002;-69
2021/09/06 13:29:07;;;;;;;;;;;;;;;;;;5015240;28;20002;-69
2021/09/06 13:31:34;;;;;;;;;;;;;;;;;;5014703;28;20019;-69
2021/09/06 13:34:02;;;;;;;;;;;;;;;;;;5014543;28;20017;-69
2021/09/06 13:36:29;;;;;;;;;;;;;;;;;;5014903;28;20006;-67
2021/09/06 13:38:57;;;;;;;;;;;;;;;;;;5015386;28;20008;-68
2021/09/06 13:41:24;;;;;;;;;;;;;;;;;;5015079;28;20018;-67
2021/09/06 13:43:51;;;;;;;;;;;;;;;;;;5010353;28;19998;-67
2021/09/06 13:46:18;;;;;;;;;;;;;;;;;;5014803;28;19995;-67
2021/09/06 13:48:44;;;;;;;;;;;;;;;;;;5014919;28;20003;-67
2021/09/06 13:51:11;;;;;;;;;;;;;;;;;;5014650;28;20045;-67
2021/09/06 13:53:40;;;;;;;;;;;;;;;;;;5014828;28;20003;-67
2021/09/06 13:56:07;;;;;;;;;;;;;;;;;;5015074;28;20018;-67
2021/09/06 13:58:34;;;;;;;;;;;;;;;;;;5015114;28;20002;-67
2021/09/06 14:01:01;;;;;;;;;;;;;;;;;;5014586;28;20080;-67
2021/09/06 14:03:28;;;;;;;;;;;;;;;;;;5014930;28;20469;-67
2021/09/06 14:05:55;;;;;;;;;;;;;;;;;;5014832;28;20089;-67
2021/09/06 14:08:22;;;;;;;;;;;;;;;;;;5014300;28;20008;-67
2021/09/06 14:10:49;;;;;;;;;;;;;;;;;;5014366;28;20006;-67
2021/09/06 14:13:16;;;;;;;;;;;;;;;;;;5014829;28;20002;-67
2021/09/06 14:15:43;;;;;;;;;;;;;;;;;;5014875;28;20021;-68
2021/09/06 14:18:09;;;;;;;;;;;;;;;;;;5014938;28;20002;-67
2021/09/06 14:20:39;;;;;;;;;;;;;;;;;;5014140;28;20013;-67
2021/09/06 14:23:06;;;;;;;;;;;;;;;;;;5014486;28;20006;-67
2021/09/06 14:25:33;;;;;;;;;;;;;;;;;;5014452;28;20093;-67
2021/09/06 14:28:00;;;;;;;;;;;;;;;;;;5016293;28;20008;-67
2021/09/06 14:30:27;;;;;;;;;;;;;;;;;;5015836;28;20373;-68
2021/09/06 14:32:54;;;;;;;;;;;;;;;;;;5014746;28;20025;-66
2021/09/06 14:35:21;;;;;;;;;;;;;;;;;;5014498;28;20025;-66
2021/09/06 14:37:48;;;;;;;;;;;;;;;;;;5013880;28;20361;-67
2021/09/06 14:40:15;;;;;;;;;;;;;;;;;;5014109;28;20009;-66
2021/09/06 14:42:41;;;;;;;;;;;;;;;;;;5014216;28;20018;-67
2021/09/06 14:45:08;;;;;;;;;;;;;;;;;;5013787;28;20009;-67
2021/09/06 14:47:35;;;;;;;;;;;;;;;;;;5014385;28;20009;-68
2021/09/06 14:50:02;;;;;;;;;;;;;;;;;;5014143;28;20002;-68
2021/09/06 14:52:29;;;;;;;;;;;;;;;;;;5013623;28;20022;-67
2021/09/06 14:54:56;;;;;;;;;;;;;;;;;;5013911;28;20029;-67
2021/09/06 14:57:24;;;;;;;;;;;;;;;;;;5013880;28;20002;-66
2021/09/06 14:59:51;;;;;;;;;;;;;;;;;;5013955;28;20535;-67
2021/09/06 15:02:18;;;;;;;;;;;;;;;;;;5013872;28;20024;-67
2021/09/06 15:04:45;;;;;;;;;;;;;;;;;;5014397;28;20002;-67
2021/09/06 15:07:12;;;;;;;;;;;;;;;;;;5013775;28;20003;-67
2021/09/06 15:09:39;;;;;;;;;;;;;;;;;;5014139;28;20002;-67
2021/09/06 15:12:06;;;;;;;;;;;;;;;;;;5014020;28;20034;-67
2021/09/06 15:14:34;;;;;;;;;;;;;;;;;;5013571;28;20457;-67
2021/09/06 15:17:01;;;;;;;;;;;;;;;;;;5013363;28;20017;-68
2021/09/06 15:19:28;;;;;;;;;;;;;;;;;;5013048;28;20002;-67
2021/09/06 15:21:55;;;;;;;;;;;;;;;;;;5013197;28;20019;-67
2021/09/06 15:24:21;;;;;;;;;;;;;;;;;;5013765;28;20013;-66
2021/09/06 15:26:48;;;;;;;;;;;;;;;;;;5013331;28;20377;-67
2021/09/06 15:29:15;;;;;;;;;;;;;;;;;;5013894;28;20002;-67
2021/09/06 15:31:43;;;;;;;;;;;;;;;;;;5013367;28;20018;-68
2021/09/06 15:34:10;;;;;;;;;;;;;;;;;;5013102;28;20010;-67
2021/09/06 15:36:37;;;;;;;;;;;;;;;;;;5013084;28;20025;-68
2021/09/06 15:39:04;;;;;;;;;;;;;;;;;;5013963;28;20002;-68
2021/09/06 15:41:31;;;;;;;;;;;;;;;;;;5014231;28;20022;-67
2021/09/06 15:43:58;;;;;;;;;;;;;;;;;;5014611;28;20002;-67
2021/09/06 15:46:25;;;;;;;;;;;;;;;;;;5013251;28;20476;-67
2021/09/06 15:48:52;;;;;;;;;;;;;;;;;;5014628;28;20002;-67
2021/09/06 15:51:19;;;;;;;;;;;;;;;;;;5013354;28;20049;-67
2021/09/06 15:53:46;;;;;;;;;;;;;;;;;;5014057;28;20003;-67
2021/09/06 15:56:13;;;;;;;;;;;;;;;;;;5014192;28;20439;-68
2021/09/06 15:58:40;;;;;;;;;;;;;;;;;;5013025;28;20002;-67
2021/09/06 16:01:07;;;;;;;;;;;;;;;;;;5012769;28;20018;-68
2021/09/06 16:03:34;;;;;;;;;;;;;;;;;;5012941;28;20009;-68
2021/09/06 16:06:02;;;;;;;;;;;;;;;;;;5013116;28;20137;-68
2021/09/06 16:08:29;;;;;;;;;;;;;;;;;;5013010;28;20002;-68
2021/09/06 16:10:56;;;;;;;;;;;;;;;;;;5012574;28;20006;-68
2021/09/06 16:13:22;;;;;;;;;;;;;;;;;;5012590;28;20481;-68
2021/09/06 16:15:49;;;;;;;;;;;;;;;;;;5012619;28;20022;-68
2021/09/06 16:18:16;;;;;;;;;;;;;;;;;;5012406;28;20025;-68
2021/09/06 16:20:43;;;;;;;;;;;;;;;;;;5012027;28;20002;-68
2021/09/06 16:23:10;;;;;;;;;;;;;;;;;;5012393;28;20009;-68
2021/09/06 16:25:37;;;;;;;;;;;;;;;;;;5012472;28;20477;-67
2021/09/06 16:28:04;;;;;;;;;;;;;;;;;;5012311;28;20002;-67
2021/09/06 16:30:33;;;;;;;;;;;;;;;;;;5012203;28;20007;-69
2021/09/06 16:33:00;;;;;;;;;;;;;;;;;;5015935;28;20113;-68
2021/09/06 16:35:28;;;;;;;;;;;;;;;;;;5016052;28;20041;-68
2021/09/06 16:37:55;;;;;;;;;;;;;;;;;;5015968;28;20002;-67
2021/09/06 16:40:22;;;;;;;;;;;;;;;;;;5015665;28;20014;-68
2021/09/06 16:42:49;;;;;;;;;;;;;;;;;;5015837;28;20025;-68